sensor_id;sensor_type;location;lat;lon;timestamp;P1;durP1;ratioP1;P2;durP2;ratioP2
13603;SDS011;24578;48.264;11.436;2022-12-17T00:03:03;34.90;;;34.04;;
13603;SDS011;24578;48.264;11.436;2022-12-17T00:06:22;34.80;;;33.67;;
13603;SDS011;24578;48.264;11.436;2022-12-17T00:09:41;34.67;;;33.48;;
13603;SDS011;24578;48.264;11.436;2022-12-17T00:13:01;34.35;;;33.62;;
13603;SDS011;24578;48.264;11.436;2022-12-17T00:16:20;34.70;;;33.86;;
13603;SDS011;24578;48.264;11.436;2022-12-17T00:19:39;34.56;;;33.66;;
13603;SDS011;24578;48.264;11.436;2022-12-17T00:22:59;35.18;;;34.25;;
13603;SDS011;24578;48.264;11.436;2022-12-17T00:26:20;35.85;;;34.94;;
13603;SDS011;24578;48.264;11.436;2022-12-17T00:29:39;36.42;;;35.60;;
13603;SDS011;24578;48.264;11.436;2022-12-17T00:32:58;36.75;;;35.88;;
13603;SDS011;24578;48.264;11.436;2022-12-17T00:36:17;35.78;;;35.06;;
13603;SDS011;24578;48.264;11.436;2022-12-17T00:39:36;36.10;;;35.19;;
13603;SDS011;24578;48.264;11.436;2022-12-17T00:43:03;35.81;;;34.69;;
13603;SDS011;24578;48.264;11.436;2022-12-17T00:46:24;34.45;;;33.58;;
13603;SDS011;24578;48.264;11.436;2022-12-17T00:49:43;35.22;;;34.22;;
13603;SDS011;24578;48.264;11.436;2022-12-17T00:53:02;35.34;;;34.33;;
13603;SDS011;24578;48.264;11.436;2022-12-17T00:56:21;34.53;;;33.79;;
13603;SDS011;24578;48.264;11.436;2022-12-17T00:59:40;36.61;;;35.67;;
13603;SDS011;24578;48.264;11.436;2022-12-17T01:03:03;35.70;;;34.61;;
13603;SDS011;24578;48.264;11.436;2022-12-17T01:06:24;35.81;;;34.86;;
13603;SDS011;24578;48.264;11.436;2022-12-17T01:09:43;35.74;;;34.69;;
13603;SDS011;24578;48.264;11.436;2022-12-17T01:13:02;37.34;;;36.29;;
13603;SDS011;24578;48.264;11.436;2022-12-17T01:16:21;51.24;;;49.78;;
13603;SDS011;24578;48.264;11.436;2022-12-17T01:19:41;43.27;;;42.31;;
13603;SDS011;24578;48.264;11.436;2022-12-17T01:23:00;36.14;;;35.30;;
13603;SDS011;24578;48.264;11.436;2022-12-17T01:26:19;36.44;;;35.47;;
13603;SDS011;24578;48.264;11.436;2022-12-17T01:29:38;35.85;;;34.89;;
13603;SDS011;24578;48.264;11.436;2022-12-17T01:33:04;36.21;;;35.49;;
13603;SDS011;24578;48.264;11.436;2022-12-17T01:36:25;43.51;;;42.29;;
13603;SDS011;24578;48.264;11.436;2022-12-17T01:39:44;51.44;;;50.00;;
13603;SDS011;24578;48.264;11.436;2022-12-17T01:43:05;36.85;;;35.90;;
13603;SDS011;24578;48.264;11.436;2022-12-17T01:46:32;36.18;;;35.34;;
13603;SDS011;24578;48.264;11.436;2022-12-17T01:49:55;35.95;;;34.89;;
13603;SDS011;24578;48.264;11.436;2022-12-17T01:53:15;35.93;;;35.09;;
13603;SDS011;24578;48.264;11.436;2022-12-17T01:56:53;35.75;;;34.91;;
13603;SDS011;24578;48.264;11.436;2022-12-17T02:00:14;37.19;;;36.13;;
13603;SDS011;24578;48.264;11.436;2022-12-17T02:03:34;47.39;;;46.01;;
13603;SDS011;24578;48.264;11.436;2022-12-17T02:14:19;37.42;;;36.31;;
13603;SDS011;24578;48.264;11.436;2022-12-17T02:17:51;36.07;;;35.48;;
13603;SDS011;24578;48.264;11.436;2022-12-17T02:21:14;37.18;;;36.03;;
13603;SDS011;24578;48.264;11.436;2022-12-17T02:24:36;35.79;;;35.12;;
13603;SDS011;24578;48.264;11.436;2022-12-17T02:28:11;35.85;;;35.11;;
13603;SDS011;24578;48.264;11.436;2022-12-17T02:31:31;37.06;;;36.22;;
13603;SDS011;24578;48.264;11.436;2022-12-17T02:34:57;37.64;;;36.87;;
13603;SDS011;24578;48.264;11.436;2022-12-17T02:38:23;36.48;;;35.65;;
13603;SDS011;24578;48.264;11.436;2022-12-17T02:41:51;38.89;;;37.86;;
13603;SDS011;24578;48.264;11.436;2022-12-17T02:45:15;39.87;;;38.81;;
13603;SDS011;24578;48.264;11.436;2022-12-17T02:48:36;38.18;;;37.78;;
13603;SDS011;24578;48.264;11.436;2022-12-17T02:51:55;37.30;;;36.23;;
13603;SDS011;24578;48.264;11.436;2022-12-17T02:55:15;39.33;;;38.19;;
13603;SDS011;24578;48.264;11.436;2022-12-17T02:58:34;39.24;;;38.43;;
13603;SDS011;24578;48.264;11.436;2022-12-17T03:01:53;37.87;;;36.87;;
13603;SDS011;24578;48.264;11.436;2022-12-17T03:05:12;38.68;;;37.68;;
13603;SDS011;24578;48.264;11.436;2022-12-17T03:08:31;38.18;;;37.16;;
13603;SDS011;24578;48.264;11.436;2022-12-17T03:11:50;37.61;;;37.03;;
13603;SDS011;24578;48.264;11.436;2022-12-17T03:15:09;37.83;;;36.88;;
13603;SDS011;24578;48.264;11.436;2022-12-17T03:18:29;39.86;;;38.77;;
13603;SDS011;24578;48.264;11.436;2022-12-17T03:21:47;37.14;;;36.46;;
13603;SDS011;24578;48.264;11.436;2022-12-17T03:25:07;38.47;;;37.49;;
13603;SDS011;24578;48.264;11.436;2022-12-17T03:28:25;36.93;;;36.15;;
13603;SDS011;24578;48.264;11.436;2022-12-17T03:31:45;36.64;;;35.84;;
13603;SDS011;24578;48.264;11.436;2022-12-17T03:35:04;36.16;;;35.19;;
13603;SDS011;24578;48.264;11.436;2022-12-17T03:38:23;36.77;;;36.24;;
13603;SDS011;24578;48.264;11.436;2022-12-17T03:41:42;38.08;;;37.04;;
13603;SDS011;24578;48.264;11.436;2022-12-17T03:45:03;37.23;;;36.44;;
13603;SDS011;24578;48.264;11.436;2022-12-17T03:48:23;38.16;;;37.31;;
13603;SDS011;24578;48.264;11.436;2022-12-17T03:51:42;38.12;;;36.91;;
13603;SDS011;24578;48.264;11.436;2022-12-17T03:55:01;38.69;;;37.89;;
13603;SDS011;24578;48.264;11.436;2022-12-17T03:58:20;38.13;;;37.11;;
13603;SDS011;24578;48.264;11.436;2022-12-17T04:01:53;37.77;;;36.96;;
13603;SDS011;24578;48.264;11.436;2022-12-17T04:05:12;38.37;;;37.52;;
13603;SDS011;24578;48.264;11.436;2022-12-17T04:08:31;38.03;;;37.36;;
13603;SDS011;24578;48.264;11.436;2022-12-17T04:11:50;38.46;;;37.69;;
13603;SDS011;24578;48.264;11.436;2022-12-17T04:15:10;38.32;;;37.37;;
13603;SDS011;24578;48.264;11.436;2022-12-17T04:18:29;38.74;;;37.88;;
13603;SDS011;24578;48.264;11.436;2022-12-17T04:21:48;43.14;;;41.87;;
13603;SDS011;24578;48.264;11.436;2022-12-17T04:25:07;39.89;;;38.76;;
13603;SDS011;24578;48.264;11.436;2022-12-17T04:28:26;37.20;;;36.23;;
13603;SDS011;24578;48.264;11.436;2022-12-17T04:31:45;37.10;;;36.08;;
13603;SDS011;24578;48.264;11.436;2022-12-17T04:35:04;35.29;;;34.58;;
13603;SDS011;24578;48.264;11.436;2022-12-17T04:38:23;35.98;;;35.35;;
13603;SDS011;24578;48.264;11.436;2022-12-17T04:41:43;34.86;;;34.18;;
13603;SDS011;24578;48.264;11.436;2022-12-17T04:45:02;35.92;;;35.02;;
13603;SDS011;24578;48.264;11.436;2022-12-17T04:48:21;35.98;;;35.26;;
13603;SDS011;24578;48.264;11.436;2022-12-17T04:51:40;36.09;;;35.26;;
13603;SDS011;24578;48.264;11.436;2022-12-17T04:54:59;36.97;;;36.25;;
13603;SDS011;24578;48.264;11.436;2022-12-17T04:58:18;36.14;;;35.30;;
13603;SDS011;24578;48.264;11.436;2022-12-17T05:01:37;35.85;;;34.73;;
13603;SDS011;24578;48.264;11.436;2022-12-17T05:04:56;36.20;;;35.29;;
13603;SDS011;24578;48.264;11.436;2022-12-17T05:08:16;36.46;;;35.49;;
13603;SDS011;24578;48.264;11.436;2022-12-17T05:11:35;35.50;;;34.61;;
13603;SDS011;24578;48.264;11.436;2022-12-17T05:14:54;37.44;;;36.30;;
13603;SDS011;24578;48.264;11.436;2022-12-17T05:18:13;37.27;;;36.23;;
13603;SDS011;24578;48.264;11.436;2022-12-17T05:21:32;35.38;;;34.87;;
13603;SDS011;24578;48.264;11.436;2022-12-17T05:24:51;37.85;;;36.74;;
13603;SDS011;24578;48.264;11.436;2022-12-17T05:28:11;37.44;;;36.30;;
13603;SDS011;24578;48.264;11.436;2022-12-17T05:31:33;39.01;;;37.71;;
13603;SDS011;24578;48.264;11.436;2022-12-17T05:34:52;39.53;;;38.53;;
13603;SDS011;24578;48.264;11.436;2022-12-17T05:38:11;39.53;;;38.59;;
13603;SDS011;24578;48.264;11.436;2022-12-17T05:41:30;39.47;;;38.48;;
13603;SDS011;24578;48.264;11.436;2022-12-17T05:44:49;41.43;;;40.30;;
13603;SDS011;24578;48.264;11.436;2022-12-17T05:48:08;40.16;;;39.13;;
13603;SDS011;24578;48.264;11.436;2022-12-17T05:51:27;40.73;;;39.54;;
13603;SDS011;24578;48.264;11.436;2022-12-17T05:54:46;39.67;;;38.64;;
13603;SDS011;24578;48.264;11.436;2022-12-17T05:58:07;38.56;;;37.94;;
13603;SDS011;24578;48.264;11.436;2022-12-17T06:01:28;39.96;;;39.12;;
13603;SDS011;24578;48.264;11.436;2022-12-17T06:04:47;41.29;;;40.53;;
13603;SDS011;24578;48.264;11.436;2022-12-17T06:08:07;41.48;;;40.76;;
13603;SDS011;24578;48.264;11.436;2022-12-17T06:11:26;42.57;;;41.78;;
13603;SDS011;24578;48.264;11.436;2022-12-17T06:14:45;40.87;;;39.76;;
13603;SDS011;24578;48.264;11.436;2022-12-17T06:18:05;40.64;;;39.48;;
13603;SDS011;24578;48.264;11.436;2022-12-17T06:21:24;47.91;;;46.61;;
13603;SDS011;24578;48.264;11.436;2022-12-17T06:24:43;52.61;;;50.97;;
13603;SDS011;24578;48.264;11.436;2022-12-17T06:28:02;52.83;;;51.51;;
13603;SDS011;24578;48.264;11.436;2022-12-17T06:31:22;50.64;;;49.47;;
13603;SDS011;24578;48.264;11.436;2022-12-17T06:34:42;55.94;;;54.34;;
13603;SDS011;24578;48.264;11.436;2022-12-17T06:38:03;48.05;;;46.89;;
13603;SDS011;24578;48.264;11.436;2022-12-17T06:41:23;41.99;;;40.95;;
13603;SDS011;24578;48.264;11.436;2022-12-17T06:44:42;44.80;;;44.06;;
13603;SDS011;24578;48.264;11.436;2022-12-17T06:48:02;44.04;;;43.07;;
13603;SDS011;24578;48.264;11.436;2022-12-17T06:51:23;40.82;;;40.07;;
13603;SDS011;24578;48.264;11.436;2022-12-17T06:54:42;41.11;;;40.23;;
13603;SDS011;24578;48.264;11.436;2022-12-17T06:58:01;41.82;;;40.70;;
13603;SDS011;24578;48.264;11.436;2022-12-17T07:01:22;40.89;;;40.03;;
13603;SDS011;24578;48.264;11.436;2022-12-17T07:04:41;41.46;;;40.26;;
13603;SDS011;24578;48.264;11.436;2022-12-17T07:08:01;41.50;;;40.42;;
13603;SDS011;24578;48.264;11.436;2022-12-17T07:11:20;43.30;;;41.94;;
13603;SDS011;24578;48.264;11.436;2022-12-17T07:14:39;42.86;;;41.60;;
13603;SDS011;24578;48.264;11.436;2022-12-17T07:18:02;43.48;;;42.61;;
13603;SDS011;24578;48.264;11.436;2022-12-17T07:21:23;47.22;;;45.86;;
13603;SDS011;24578;48.264;11.436;2022-12-17T07:24:43;45.15;;;44.07;;
13603;SDS011;24578;48.264;11.436;2022-12-17T07:28:02;49.08;;;47.85;;
13603;SDS011;24578;48.264;11.436;2022-12-17T07:31:21;55.56;;;54.10;;
13603;SDS011;24578;48.264;11.436;2022-12-17T07:34:40;44.23;;;43.18;;
13603;SDS011;24578;48.264;11.436;2022-12-17T07:38:00;40.98;;;40.05;;
13603;SDS011;24578;48.264;11.436;2022-12-17T07:41:22;41.78;;;40.81;;
13603;SDS011;24578;48.264;11.436;2022-12-17T07:44:41;43.49;;;42.15;;
13603;SDS011;24578;48.264;11.436;2022-12-17T07:48:01;42.51;;;41.60;;
13603;SDS011;24578;48.264;11.436;2022-12-17T07:51:20;41.52;;;40.63;;
13603;SDS011;24578;48.264;11.436;2022-12-17T07:54:39;42.09;;;40.95;;
13603;SDS011;24578;48.264;11.436;2022-12-17T07:58:03;43.12;;;41.93;;
13603;SDS011;24578;48.264;11.436;2022-12-17T08:01:24;44.22;;;43.30;;
13603;SDS011;24578;48.264;11.436;2022-12-17T08:04:44;43.55;;;42.66;;
13603;SDS011;24578;48.264;11.436;2022-12-17T08:08:07;43.30;;;42.08;;
13603;SDS011;24578;48.264;11.436;2022-12-17T08:11:28;42.55;;;41.66;;
13603;SDS011;24578;48.264;11.436;2022-12-17T08:14:47;43.58;;;42.25;;
13603;SDS011;24578;48.264;11.436;2022-12-17T08:18:06;44.01;;;43.11;;
13603;SDS011;24578;48.264;11.436;2022-12-17T08:21:25;43.94;;;42.89;;
13603;SDS011;24578;48.264;11.436;2022-12-17T08:24:44;42.93;;;42.10;;
13603;SDS011;24578;48.264;11.436;2022-12-17T08:28:03;43.60;;;42.79;;
13603;SDS011;24578;48.264;11.436;2022-12-17T08:31:23;43.10;;;42.19;;
13603;SDS011;24578;48.264;11.436;2022-12-17T08:34:43;47.54;;;46.81;;
13603;SDS011;24578;48.264;11.436;2022-12-17T08:38:03;43.53;;;42.61;;
13603;SDS011;24578;48.264;11.436;2022-12-17T08:41:24;43.89;;;43.43;;
13603;SDS011;24578;48.264;11.436;2022-12-17T08:44:44;43.01;;;42.04;;
13603;SDS011;24578;48.264;11.436;2022-12-17T08:48:04;42.60;;;41.93;;
13603;SDS011;24578;48.264;11.436;2022-12-17T08:51:25;42.66;;;41.93;;
13603;SDS011;24578;48.264;11.436;2022-12-17T08:54:44;41.91;;;41.14;;
13603;SDS011;24578;48.264;11.436;2022-12-17T08:58:20;44.64;;;43.66;;
13603;SDS011;24578;48.264;11.436;2022-12-17T09:01:42;47.74;;;46.58;;
13603;SDS011;24578;48.264;11.436;2022-12-17T09:05:01;46.16;;;44.93;;
13603;SDS011;24578;48.264;11.436;2022-12-17T09:08:20;44.60;;;43.71;;
13603;SDS011;24578;48.264;11.436;2022-12-17T09:11:39;43.22;;;42.32;;
13603;SDS011;24578;48.264;11.436;2022-12-17T09:14:59;44.38;;;43.35;;
13603;SDS011;24578;48.264;11.436;2022-12-17T09:18:19;44.17;;;43.30;;
13603;SDS011;24578;48.264;11.436;2022-12-17T09:21:39;44.37;;;43.54;;
13603;SDS011;24578;48.264;11.436;2022-12-17T09:24:58;51.94;;;50.64;;
13603;SDS011;24578;48.264;11.436;2022-12-17T09:28:17;45.44;;;44.49;;
13603;SDS011;24578;48.264;11.436;2022-12-17T09:31:37;42.74;;;41.87;;
13603;SDS011;24578;48.264;11.436;2022-12-17T09:34:56;42.11;;;41.28;;
13603;SDS011;24578;48.264;11.436;2022-12-17T09:38:15;39.22;;;38.98;;
13603;SDS011;24578;48.264;11.436;2022-12-17T09:41:41;39.93;;;38.99;;
13603;SDS011;24578;48.264;11.436;2022-12-17T09:45:16;39.75;;;39.07;;
13603;SDS011;24578;48.264;11.436;2022-12-17T09:55:46;40.18;;;39.32;;
13603;SDS011;24578;48.264;11.436;2022-12-17T09:59:19;58.04;;;56.24;;
13603;SDS011;24578;48.264;11.436;2022-12-17T10:02:39;40.87;;;39.97;;
13603;SDS011;24578;48.264;11.436;2022-12-17T10:05:59;40.83;;;40.17;;
13603;SDS011;24578;48.264;11.436;2022-12-17T10:09:43;40.12;;;39.68;;
13603;SDS011;24578;48.264;11.436;2022-12-17T10:13:26;39.22;;;38.60;;
13603;SDS011;24578;48.264;11.436;2022-12-17T10:16:45;39.13;;;38.50;;
13603;SDS011;24578;48.264;11.436;2022-12-17T10:23:42;38.60;;;38.41;;
13603;SDS011;24578;48.264;11.436;2022-12-17T10:27:08;38.75;;;38.02;;
13603;SDS011;24578;48.264;11.436;2022-12-17T10:30:28;38.69;;;38.11;;
13603;SDS011;24578;48.264;11.436;2022-12-17T10:33:49;40.39;;;39.59;;
13603;SDS011;24578;48.264;11.436;2022-12-17T10:37:18;43.96;;;43.57;;
13603;SDS011;24578;48.264;11.436;2022-12-17T10:40:39;41.08;;;40.12;;
13603;SDS011;24578;48.264;11.436;2022-12-17T10:43:58;40.69;;;40.10;;
13603;SDS011;24578;48.264;11.436;2022-12-17T10:47:18;39.78;;;39.43;;
13603;SDS011;24578;48.264;11.436;2022-12-17T10:50:39;43.22;;;42.50;;
13603;SDS011;24578;48.264;11.436;2022-12-17T10:53:59;42.44;;;41.44;;
13603;SDS011;24578;48.264;11.436;2022-12-17T10:57:37;41.43;;;40.28;;
13603;SDS011;24578;48.264;11.436;2022-12-17T11:00:58;42.57;;;41.42;;
13603;SDS011;24578;48.264;11.436;2022-12-17T11:04:23;45.41;;;44.60;;
13603;SDS011;24578;48.264;11.436;2022-12-17T11:07:47;41.17;;;40.22;;
13603;SDS011;24578;48.264;11.436;2022-12-17T11:11:09;39.93;;;39.13;;
13603;SDS011;24578;48.264;11.436;2022-12-17T11:14:33;40.19;;;39.23;;
13603;SDS011;24578;48.264;11.436;2022-12-17T11:18:10;39.90;;;39.39;;
13603;SDS011;24578;48.264;11.436;2022-12-17T11:21:40;46.16;;;44.87;;
13603;SDS011;24578;48.264;11.436;2022-12-17T11:25:06;40.77;;;39.59;;
13603;SDS011;24578;48.264;11.436;2022-12-17T11:28:55;39.64;;;38.67;;
13603;SDS011;24578;48.264;11.436;2022-12-17T11:32:32;39.17;;;38.05;;
13603;SDS011;24578;48.264;11.436;2022-12-17T11:36:16;39.32;;;38.03;;
13603;SDS011;24578;48.264;11.436;2022-12-17T11:40:17;40.36;;;39.34;;
13603;SDS011;24578;48.264;11.436;2022-12-17T11:51:24;42.09;;;41.25;;
13603;SDS011;24578;48.264;11.436;2022-12-17T11:54:59;42.18;;;41.12;;
13603;SDS011;24578;48.264;11.436;2022-12-17T11:58:53;43.01;;;41.81;;
13603;SDS011;24578;48.264;11.436;2022-12-17T12:06:08;42.72;;;41.78;;
13603;SDS011;24578;48.264;11.436;2022-12-17T12:16:56;42.64;;;41.47;;
13603;SDS011;24578;48.264;11.436;2022-12-17T12:31:57;42.65;;;41.60;;
13603;SDS011;24578;48.264;11.436;2022-12-17T12:35:30;43.25;;;42.05;;
13603;SDS011;24578;48.264;11.436;2022-12-17T12:38:54;45.04;;;43.49;;
13603;SDS011;24578;48.264;11.436;2022-12-17T12:42:21;45.62;;;44.13;;
13603;SDS011;24578;48.264;11.436;2022-12-17T12:45:58;42.58;;;41.84;;
13603;SDS011;24578;48.264;11.436;2022-12-17T12:53:03;45.95;;;44.75;;
13603;SDS011;24578;48.264;11.436;2022-12-17T12:58:31;46.20;;;45.20;;
13603;SDS011;24578;48.264;11.436;2022-12-17T13:01:52;44.68;;;43.55;;
13603;SDS011;24578;48.264;11.436;2022-12-17T13:05:25;44.01;;;42.67;;
13603;SDS011;24578;48.264;11.436;2022-12-17T13:08:33;45.67;;;44.46;;
13603;SDS011;24578;48.264;11.436;2022-12-17T13:11:37;46.25;;;45.18;;
13603;SDS011;24578;48.264;11.436;2022-12-17T13:14:46;45.32;;;44.50;;
13603;SDS011;24578;48.264;11.436;2022-12-17T13:24:08;48.70;;;47.34;;
13603;SDS011;24578;48.264;11.436;2022-12-17T13:27:43;49.30;;;48.25;;
13603;SDS011;24578;48.264;11.436;2022-12-17T13:30:39;51.22;;;49.74;;
13603;SDS011;24578;48.264;11.436;2022-12-17T13:36:49;48.33;;;46.99;;
13603;SDS011;24578;48.264;11.436;2022-12-17T13:43:53;55.48;;;53.94;;
13603;SDS011;24578;48.264;11.436;2022-12-17T13:46:57;54.42;;;53.01;;
13603;SDS011;24578;48.264;11.436;2022-12-17T13:49:59;52.29;;;50.88;;
13603;SDS011;24578;48.264;11.436;2022-12-17T13:53:09;55.24;;;53.92;;
13603;SDS011;24578;48.264;11.436;2022-12-17T13:56:11;52.93;;;51.75;;
13603;SDS011;24578;48.264;11.436;2022-12-17T13:59:17;54.75;;;52.98;;
13603;SDS011;24578;48.264;11.436;2022-12-17T14:02:23;51.39;;;49.82;;
13603;SDS011;24578;48.264;11.436;2022-12-17T14:05:30;53.36;;;52.01;;
13603;SDS011;24578;48.264;11.436;2022-12-17T14:08:37;54.61;;;53.03;;
13603;SDS011;24578;48.264;11.436;2022-12-17T14:11:38;53.49;;;51.94;;
13603;SDS011;24578;48.264;11.436;2022-12-17T14:15:02;51.27;;;49.96;;
13603;SDS011;24578;48.264;11.436;2022-12-17T14:18:08;52.62;;;51.57;;
13603;SDS011;24578;48.264;11.436;2022-12-17T14:21:17;50.07;;;49.03;;
13603;SDS011;24578;48.264;11.436;2022-12-17T14:24:20;50.48;;;49.13;;
13603;SDS011;24578;48.264;11.436;2022-12-17T14:27:30;51.30;;;49.81;;
13603;SDS011;24578;48.264;11.436;2022-12-17T14:30:38;52.66;;;51.68;;
13603;SDS011;24578;48.264;11.436;2022-12-17T14:33:41;52.69;;;51.37;;
13603;SDS011;24578;48.264;11.436;2022-12-17T14:36:42;51.60;;;50.16;;
13603;SDS011;24578;48.264;11.436;2022-12-17T14:39:44;55.16;;;53.33;;
13603;SDS011;24578;48.264;11.436;2022-12-17T14:42:47;55.05;;;53.19;;
13603;SDS011;24578;48.264;11.436;2022-12-17T14:45:49;54.83;;;53.18;;
13603;SDS011;24578;48.264;11.436;2022-12-17T14:49:17;55.82;;;54.19;;
13603;SDS011;24578;48.264;11.436;2022-12-17T14:55:52;53.91;;;52.52;;
13603;SDS011;24578;48.264;11.436;2022-12-17T14:58:56;54.03;;;52.92;;
13603;SDS011;24578;48.264;11.436;2022-12-17T15:01:58;54.70;;;53.35;;
13603;SDS011;24578;48.264;11.436;2022-12-17T15:05:19;53.28;;;51.64;;
13603;SDS011;24578;48.264;11.436;2022-12-17T15:08:20;54.95;;;53.40;;
13603;SDS011;24578;48.264;11.436;2022-12-17T15:11:22;55.90;;;54.33;;
13603;SDS011;24578;48.264;11.436;2022-12-17T15:14:23;55.38;;;53.74;;
13603;SDS011;24578;48.264;11.436;2022-12-17T15:17:23;56.47;;;54.74;;
13603;SDS011;24578;48.264;11.436;2022-12-17T15:20:24;58.57;;;56.99;;
13603;SDS011;24578;48.264;11.436;2022-12-17T15:23:24;59.54;;;57.75;;
13603;SDS011;24578;48.264;11.436;2022-12-17T15:26:25;58.58;;;56.78;;
13603;SDS011;24578;48.264;11.436;2022-12-17T15:29:26;59.88;;;57.82;;
13603;SDS011;24578;48.264;11.436;2022-12-17T15:32:28;59.79;;;57.82;;
13603;SDS011;24578;48.264;11.436;2022-12-17T15:35:28;59.72;;;58.00;;
13603;SDS011;24578;48.264;11.436;2022-12-17T15:38:29;59.21;;;57.55;;
13603;SDS011;24578;48.264;11.436;2022-12-17T15:41:29;57.85;;;56.19;;
13603;SDS011;24578;48.264;11.436;2022-12-17T15:44:49;61.11;;;59.46;;
13603;SDS011;24578;48.264;11.436;2022-12-17T15:47:49;61.40;;;59.38;;
13603;SDS011;24578;48.264;11.436;2022-12-17T15:50:50;61.38;;;59.50;;
13603;SDS011;24578;48.264;11.436;2022-12-17T15:53:50;65.43;;;63.17;;
13603;SDS011;24578;48.264;11.436;2022-12-17T15:56:51;73.63;;;71.03;;
13603;SDS011;24578;48.264;11.436;2022-12-17T15:59:53;67.15;;;65.25;;
13603;SDS011;24578;48.264;11.436;2022-12-17T16:02:54;65.41;;;63.83;;
13603;SDS011;24578;48.264;11.436;2022-12-17T16:05:54;66.85;;;64.97;;
13603;SDS011;24578;48.264;11.436;2022-12-17T16:08:55;67.26;;;65.56;;
13603;SDS011;24578;48.264;11.436;2022-12-17T16:11:56;63.16;;;61.33;;
13603;SDS011;24578;48.264;11.436;2022-12-17T16:14:57;64.10;;;62.15;;
13603;SDS011;24578;48.264;11.436;2022-12-17T16:17:57;67.15;;;64.99;;
13603;SDS011;24578;48.264;11.436;2022-12-17T16:21:01;68.96;;;66.98;;
13603;SDS011;24578;48.264;11.436;2022-12-17T16:24:03;71.59;;;70.18;;
13603;SDS011;24578;48.264;11.436;2022-12-17T16:27:04;74.20;;;72.71;;
13603;SDS011;24578;48.264;11.436;2022-12-17T16:30:05;75.29;;;73.64;;
13603;SDS011;24578;48.264;11.436;2022-12-17T16:33:06;72.67;;;71.29;;
13603;SDS011;24578;48.264;11.436;2022-12-17T16:36:07;69.81;;;67.88;;
13603;SDS011;24578;48.264;11.436;2022-12-17T16:39:15;69.08;;;67.44;;
13603;SDS011;24578;48.264;11.436;2022-12-17T16:42:18;71.88;;;70.25;;
13603;SDS011;24578;48.264;11.436;2022-12-17T16:45:18;70.99;;;69.40;;
13603;SDS011;24578;48.264;11.436;2022-12-17T16:48:20;88.36;;;85.82;;
13603;SDS011;24578;48.264;11.436;2022-12-17T16:51:22;91.54;;;88.74;;
13603;SDS011;24578;48.264;11.436;2022-12-17T16:54:25;81.38;;;79.21;;
13603;SDS011;24578;48.264;11.436;2022-12-17T16:57:28;65.13;;;63.31;;
13603;SDS011;24578;48.264;11.436;2022-12-17T17:00:29;73.78;;;71.64;;
13603;SDS011;24578;48.264;11.436;2022-12-17T17:03:29;74.73;;;72.89;;
13603;SDS011;24578;48.264;11.436;2022-12-17T17:06:30;67.67;;;66.19;;
13603;SDS011;24578;48.264;11.436;2022-12-17T17:09:30;68.40;;;66.54;;
13603;SDS011;24578;48.264;11.436;2022-12-17T17:12:31;68.90;;;67.06;;
13603;SDS011;24578;48.264;11.436;2022-12-17T17:15:32;66.06;;;64.22;;
13603;SDS011;24578;48.264;11.436;2022-12-17T17:18:32;64.30;;;61.80;;
13603;SDS011;24578;48.264;11.436;2022-12-17T17:21:35;65.77;;;63.50;;
13603;SDS011;24578;48.264;11.436;2022-12-17T17:24:38;67.84;;;65.68;;
13603;SDS011;24578;48.264;11.436;2022-12-17T17:27:38;68.85;;;66.61;;
13603;SDS011;24578;48.264;11.436;2022-12-17T17:30:39;69.58;;;67.47;;
13603;SDS011;24578;48.264;11.436;2022-12-17T17:33:40;70.27;;;68.73;;
13603;SDS011;24578;48.264;11.436;2022-12-17T17:36:43;67.66;;;65.87;;
13603;SDS011;24578;48.264;11.436;2022-12-17T17:39:44;68.15;;;66.13;;
13603;SDS011;24578;48.264;11.436;2022-12-17T17:42:45;65.65;;;63.75;;
13603;SDS011;24578;48.264;11.436;2022-12-17T17:45:45;65.18;;;63.18;;
13603;SDS011;24578;48.264;11.436;2022-12-17T17:48:46;64.74;;;63.08;;
13603;SDS011;24578;48.264;11.436;2022-12-17T17:51:48;64.87;;;63.07;;
13603;SDS011;24578;48.264;11.436;2022-12-17T17:54:48;65.35;;;63.67;;
13603;SDS011;24578;48.264;11.436;2022-12-17T17:57:49;66.48;;;64.78;;
13603;SDS011;24578;48.264;11.436;2022-12-17T18:00:50;63.49;;;61.69;;
13603;SDS011;24578;48.264;11.436;2022-12-17T18:03:51;64.75;;;63.06;;
13603;SDS011;24578;48.264;11.436;2022-12-17T18:06:54;64.58;;;62.79;;
13603;SDS011;24578;48.264;11.436;2022-12-17T18:09:54;65.48;;;63.63;;
13603;SDS011;24578;48.264;11.436;2022-12-17T18:12:55;63.02;;;61.09;;
13603;SDS011;24578;48.264;11.436;2022-12-17T18:16:14;64.48;;;62.71;;
13603;SDS011;24578;48.264;11.436;2022-12-17T18:19:19;69.42;;;67.23;;
13603;SDS011;24578;48.264;11.436;2022-12-17T18:22:22;74.68;;;72.57;;
13603;SDS011;24578;48.264;11.436;2022-12-17T18:25:22;72.01;;;70.03;;
13603;SDS011;24578;48.264;11.436;2022-12-17T18:28:23;73.07;;;71.52;;
13603;SDS011;24578;48.264;11.436;2022-12-17T18:31:25;75.10;;;73.37;;
13603;SDS011;24578;48.264;11.436;2022-12-17T18:34:25;76.28;;;74.71;;
13603;SDS011;24578;48.264;11.436;2022-12-17T18:37:26;78.42;;;76.65;;
13603;SDS011;24578;48.264;11.436;2022-12-17T18:40:27;77.73;;;75.75;;
13603;SDS011;24578;48.264;11.436;2022-12-17T18:43:28;79.43;;;77.58;;
13603;SDS011;24578;48.264;11.436;2022-12-17T18:46:28;76.80;;;75.13;;
13603;SDS011;24578;48.264;11.436;2022-12-17T18:49:31;77.61;;;75.75;;
13603;SDS011;24578;48.264;11.436;2022-12-17T18:52:32;81.35;;;79.30;;
13603;SDS011;24578;48.264;11.436;2022-12-17T18:55:34;82.83;;;80.28;;
13603;SDS011;24578;48.264;11.436;2022-12-17T18:58:39;82.36;;;79.90;;
13603;SDS011;24578;48.264;11.436;2022-12-17T19:01:41;81.10;;;78.52;;
13603;SDS011;24578;48.264;11.436;2022-12-17T19:04:42;82.58;;;80.25;;
13603;SDS011;24578;48.264;11.436;2022-12-17T19:07:42;82.42;;;79.59;;
13603;SDS011;24578;48.264;11.436;2022-12-17T19:10:43;84.84;;;82.18;;
13603;SDS011;24578;48.264;11.436;2022-12-17T19:13:44;86.98;;;84.09;;
13603;SDS011;24578;48.264;11.436;2022-12-17T19:16:45;87.15;;;84.03;;
13603;SDS011;24578;48.264;11.436;2022-12-17T19:19:46;86.64;;;83.70;;
13603;SDS011;24578;48.264;11.436;2022-12-17T19:22:47;88.32;;;85.29;;
13603;SDS011;24578;48.264;11.436;2022-12-17T19:25:48;86.68;;;83.36;;
13603;SDS011;24578;48.264;11.436;2022-12-17T19:28:49;88.87;;;84.92;;
13603;SDS011;24578;48.264;11.436;2022-12-17T19:31:52;90.70;;;86.41;;
13603;SDS011;24578;48.264;11.436;2022-12-17T19:34:52;88.43;;;83.86;;
13603;SDS011;24578;48.264;11.436;2022-12-17T19:37:53;89.68;;;84.89;;
13603;SDS011;24578;48.264;11.436;2022-12-17T19:40:53;83.02;;;78.78;;
13603;SDS011;24578;48.264;11.436;2022-12-17T19:43:55;86.61;;;81.97;;
13603;SDS011;24578;48.264;11.436;2022-12-17T19:47:06;85.14;;;81.16;;
13603;SDS011;24578;48.264;11.436;2022-12-17T19:50:06;82.19;;;78.35;;
13603;SDS011;24578;48.264;11.436;2022-12-17T19:53:07;108.63;;;103.69;;
13603;SDS011;24578;48.264;11.436;2022-12-17T19:59:16;74.76;;;70.48;;